sensor_id;sensor_type;location;lat;lon;timestamp;P1;durP1;ratioP1;P2;durP2;ratioP2
635;SDS011;302;50.206;8.196;2023-12-04T00:01:13;22.53;;;18.57;;
635;SDS011;302;50.206;8.196;2023-12-04T00:03:38;23.00;;;18.30;;
635;SDS011;302;50.206;8.196;2023-12-04T00:06:03;25.83;;;20.33;;
635;SDS011;302;50.206;8.196;2023-12-04T00:08:29;23.30;;;19.07;;
635;SDS011;302;50.206;8.196;2023-12-04T00:10:54;20.90;;;17.70;;
635;SDS011;302;50.206;8.196;2023-12-04T00:13:19;21.30;;;17.03;;
635;SDS011;302;50.206;8.196;2023-12-04T00:15:44;20.97;;;17.73;;
635;SDS011;302;50.206;8.196;2023-12-04T00:18:09;21.30;;;17.03;;
635;SDS011;302;50.206;8.196;2023-12-04T00:20:34;22.03;;;17.83;;
635;SDS011;302;50.206;8.196;2023-12-04T00:23:00;22.67;;;18.57;;
635;SDS011;302;50.206;8.196;2023-12-04T00:25:25;22.50;;;18.13;;
635;SDS011;302;50.206;8.196;2023-12-04T00:27:50;22.63;;;17.95;;
635;SDS011;302;50.206;8.196;2023-12-04T00:30:16;21.20;;;17.60;;
635;SDS011;302;50.206;8.196;2023-12-04T00:32:41;21.42;;;17.13;;
635;SDS011;302;50.206;8.196;2023-12-04T00:35:06;20.73;;;17.20;;
635;SDS011;302;50.206;8.196;2023-12-04T00:37:31;21.60;;;17.47;;
635;SDS011;302;50.206;8.196;2023-12-04T00:39:56;20.53;;;16.40;;
635;SDS011;302;50.206;8.196;2023-12-04T00:42:21;20.95;;;17.67;;
635;SDS011;302;50.206;8.196;2023-12-04T00:44:47;20.45;;;16.40;;
635;SDS011;302;50.206;8.196;2023-12-04T00:47:12;19.97;;;16.83;;
635;SDS011;302;50.206;8.196;2023-12-04T00:49:37;22.38;;;17.65;;
635;SDS011;302;50.206;8.196;2023-12-04T00:52:02;20.23;;;17.10;;
635;SDS011;302;50.206;8.196;2023-12-04T00:54:27;18.40;;;15.10;;
635;SDS011;302;50.206;8.196;2023-12-04T00:56:52;19.73;;;14.90;;
635;SDS011;302;50.206;8.196;2023-12-04T00:59:18;19.42;;;15.73;;
635;SDS011;302;50.206;8.196;2023-12-04T01:01:43;18.80;;;14.60;;
635;SDS011;302;50.206;8.196;2023-12-04T01:04:08;18.60;;;15.40;;
635;SDS011;302;50.206;8.196;2023-12-04T01:06:33;18.52;;;15.07;;
635;SDS011;302;50.206;8.196;2023-12-04T01:08:58;17.60;;;14.47;;
635;SDS011;302;50.206;8.196;2023-12-04T01:11:23;18.10;;;15.18;;
635;SDS011;302;50.206;8.196;2023-12-04T01:13:49;16.87;;;14.07;;
635;SDS011;302;50.206;8.196;2023-12-04T01:16:14;17.13;;;14.70;;
635;SDS011;302;50.206;8.196;2023-12-04T01:18:40;18.17;;;14.30;;
635;SDS011;302;50.206;8.196;2023-12-04T01:21:05;18.07;;;15.20;;
635;SDS011;302;50.206;8.196;2023-12-04T01:23:30;16.40;;;14.40;;
635;SDS011;302;50.206;8.196;2023-12-04T01:25:55;16.23;;;14.20;;
635;SDS011;302;50.206;8.196;2023-12-04T01:28:20;19.42;;;15.40;;
635;SDS011;302;50.206;8.196;2023-12-04T01:30:46;19.02;;;15.15;;
635;SDS011;302;50.206;8.196;2023-12-04T01:33:11;21.57;;;15.00;;
635;SDS011;302;50.206;8.196;2023-12-04T01:35:36;16.85;;;13.55;;
635;SDS011;302;50.206;8.196;2023-12-04T01:38:01;15.90;;;13.00;;
635;SDS011;302;50.206;8.196;2023-12-04T01:40:26;16.13;;;13.60;;
635;SDS011;302;50.206;8.196;2023-12-04T01:42:52;16.50;;;13.80;;
635;SDS011;302;50.206;8.196;2023-12-04T01:45:17;16.23;;;13.30;;
635;SDS011;302;50.206;8.196;2023-12-04T01:47:42;14.50;;;12.90;;
635;SDS011;302;50.206;8.196;2023-12-04T01:50:07;17.77;;;14.00;;
635;SDS011;302;50.206;8.196;2023-12-04T01:52:33;18.17;;;13.82;;
635;SDS011;302;50.206;8.196;2023-12-04T01:54:59;18.10;;;14.87;;
635;SDS011;302;50.206;8.196;2023-12-04T01:57:24;18.75;;;15.32;;
635;SDS011;302;50.206;8.196;2023-12-04T01:59:49;15.70;;;13.13;;
635;SDS011;302;50.206;8.196;2023-12-04T02:02:14;18.23;;;13.80;;
635;SDS011;302;50.206;8.196;2023-12-04T02:04:40;18.08;;;14.25;;
635;SDS011;302;50.206;8.196;2023-12-04T02:07:05;19.50;;;14.60;;
635;SDS011;302;50.206;8.196;2023-12-04T02:09:30;18.47;;;14.97;;
635;SDS011;302;50.206;8.196;2023-12-04T02:11:55;17.30;;;13.87;;
635;SDS011;302;50.206;8.196;2023-12-04T02:14:21;16.17;;;14.07;;
635;SDS011;302;50.206;8.196;2023-12-04T02:16:46;15.27;;;13.30;;
635;SDS011;302;50.206;8.196;2023-12-04T02:19:13;16.92;;;14.38;;
635;SDS011;302;50.206;8.196;2023-12-04T02:21:38;17.07;;;14.60;;
635;SDS011;302;50.206;8.196;2023-12-04T02:24:03;17.80;;;15.53;;
635;SDS011;302;50.206;8.196;2023-12-04T02:26:32;16.83;;;13.60;;
635;SDS011;302;50.206;8.196;2023-12-04T02:29:00;16.40;;;13.85;;
635;SDS011;302;50.206;8.196;2023-12-04T02:31:26;16.05;;;13.63;;
635;SDS011;302;50.206;8.196;2023-12-04T02:33:54;16.27;;;13.45;;
635;SDS011;302;50.206;8.196;2023-12-04T02:36:20;16.40;;;13.00;;
635;SDS011;302;50.206;8.196;2023-12-04T02:38:47;16.92;;;14.10;;
635;SDS011;302;50.206;8.196;2023-12-04T02:41:12;16.55;;;13.90;;
635;SDS011;302;50.206;8.196;2023-12-04T02:43:38;19.40;;;13.77;;
635;SDS011;302;50.206;8.196;2023-12-04T02:46:03;16.63;;;13.57;;
635;SDS011;302;50.206;8.196;2023-12-04T02:48:28;14.77;;;12.57;;
635;SDS011;302;50.206;8.196;2023-12-04T02:50:53;16.80;;;14.17;;
635;SDS011;302;50.206;8.196;2023-12-04T02:53:18;15.50;;;13.13;;
635;SDS011;302;50.206;8.196;2023-12-04T02:55:44;13.90;;;12.40;;
635;SDS011;302;50.206;8.196;2023-12-04T02:58:09;14.20;;;12.70;;
635;SDS011;302;50.206;8.196;2023-12-04T03:00:34;15.32;;;13.02;;
635;SDS011;302;50.206;8.196;2023-12-04T03:02:59;15.32;;;11.77;;
635;SDS011;302;50.206;8.196;2023-12-04T03:05:24;13.97;;;12.47;;
635;SDS011;302;50.206;8.196;2023-12-04T03:07:49;13.83;;;12.33;;
635;SDS011;302;50.206;8.196;2023-12-04T03:10:15;14.87;;;12.63;;
635;SDS011;302;50.206;8.196;2023-12-04T03:12:40;14.90;;;12.80;;
635;SDS011;302;50.206;8.196;2023-12-04T03:15:05;16.40;;;13.73;;
635;SDS011;302;50.206;8.196;2023-12-04T03:17:30;17.73;;;14.07;;
635;SDS011;302;50.206;8.196;2023-12-04T03:19:55;14.65;;;12.50;;
635;SDS011;302;50.206;8.196;2023-12-04T03:22:21;15.60;;;13.13;;
635;SDS011;302;50.206;8.196;2023-12-04T03:24:46;16.60;;;13.60;;
635;SDS011;302;50.206;8.196;2023-12-04T03:27:11;17.77;;;14.10;;
635;SDS011;302;50.206;8.196;2023-12-04T03:29:36;16.33;;;13.20;;
635;SDS011;302;50.206;8.196;2023-12-04T03:32:01;17.08;;;14.05;;
635;SDS011;302;50.206;8.196;2023-12-04T03:34:27;19.43;;;13.60;;
635;SDS011;302;50.206;8.196;2023-12-04T03:36:52;17.13;;;14.43;;
635;SDS011;302;50.206;8.196;2023-12-04T03:39:17;15.87;;;14.03;;
635;SDS011;302;50.206;8.196;2023-12-04T03:41:42;18.27;;;15.25;;
635;SDS011;302;50.206;8.196;2023-12-04T03:44:07;18.05;;;14.57;;
635;SDS011;302;50.206;8.196;2023-12-04T03:46:32;19.20;;;15.07;;
635;SDS011;302;50.206;8.196;2023-12-04T03:48:58;17.80;;;13.35;;
635;SDS011;302;50.206;8.196;2023-12-04T03:51:23;16.80;;;14.70;;
635;SDS011;302;50.206;8.196;2023-12-04T03:53:48;18.70;;;14.90;;
635;SDS011;302;50.206;8.196;2023-12-04T03:56:13;18.63;;;14.88;;
635;SDS011;302;50.206;8.196;2023-12-04T03:58:38;19.70;;;15.18;;
635;SDS011;302;50.206;8.196;2023-12-04T04:01:03;16.60;;;14.30;;
635;SDS011;302;50.206;8.196;2023-12-04T04:03:29;18.40;;;14.73;;
635;SDS011;302;50.206;8.196;2023-12-04T04:05:54;18.40;;;15.05;;
635;SDS011;302;50.206;8.196;2023-12-04T04:08:19;21.92;;;15.27;;
635;SDS011;302;50.206;8.196;2023-12-04T04:10:44;18.58;;;15.00;;
635;SDS011;302;50.206;8.196;2023-12-04T04:13:10;18.87;;;14.90;;
635;SDS011;302;50.206;8.196;2023-12-04T04:15:35;16.10;;;14.40;;
635;SDS011;302;50.206;8.196;2023-12-04T04:18:00;18.40;;;15.70;;
635;SDS011;302;50.206;8.196;2023-12-04T04:20:25;19.48;;;15.38;;
635;SDS011;302;50.206;8.196;2023-12-04T04:22:51;16.10;;;14.10;;
635;SDS011;302;50.206;8.196;2023-12-04T04:25:16;18.10;;;13.57;;
635;SDS011;302;50.206;8.196;2023-12-04T04:27:42;17.90;;;14.50;;
635;SDS011;302;50.206;8.196;2023-12-04T04:30:07;17.20;;;13.70;;
635;SDS011;302;50.206;8.196;2023-12-04T04:32:33;17.33;;;13.70;;
635;SDS011;302;50.206;8.196;2023-12-04T04:34:58;13.88;;;12.32;;
635;SDS011;302;50.206;8.196;2023-12-04T04:37:23;16.30;;;13.20;;
635;SDS011;302;50.206;8.196;2023-12-04T04:39:49;16.02;;;12.90;;
635;SDS011;302;50.206;8.196;2023-12-04T04:42:14;17.02;;;12.85;;
635;SDS011;302;50.206;8.196;2023-12-04T04:44:39;16.63;;;12.97;;
635;SDS011;302;50.206;8.196;2023-12-04T04:47:04;14.38;;;11.55;;
635;SDS011;302;50.206;8.196;2023-12-04T04:49:29;14.88;;;12.35;;
635;SDS011;302;50.206;8.196;2023-12-04T04:51:54;13.90;;;11.80;;
635;SDS011;302;50.206;8.196;2023-12-04T04:54:19;16.15;;;12.20;;
635;SDS011;302;50.206;8.196;2023-12-04T04:56:45;15.33;;;12.50;;
635;SDS011;302;50.206;8.196;2023-12-04T04:59:10;13.98;;;12.32;;
635;SDS011;302;50.206;8.196;2023-12-04T05:01:35;13.87;;;12.10;;
635;SDS011;302;50.206;8.196;2023-12-04T05:04:01;14.55;;;12.95;;
635;SDS011;302;50.206;8.196;2023-12-04T05:06:26;16.10;;;12.60;;
635;SDS011;302;50.206;8.196;2023-12-04T05:08:52;13.23;;;11.17;;
635;SDS011;302;50.206;8.196;2023-12-04T05:11:17;14.30;;;10.97;;
635;SDS011;302;50.206;8.196;2023-12-04T05:13:42;13.23;;;11.83;;
635;SDS011;302;50.206;8.196;2023-12-04T05:16:08;14.00;;;10.95;;
635;SDS011;302;50.206;8.196;2023-12-04T05:18:33;13.83;;;11.67;;
635;SDS011;302;50.206;8.196;2023-12-04T05:20:58;12.43;;;10.65;;
635;SDS011;302;50.206;8.196;2023-12-04T05:23:23;14.38;;;11.70;;
635;SDS011;302;50.206;8.196;2023-12-04T05:25:48;10.82;;;9.60;;
635;SDS011;302;50.206;8.196;2023-12-04T05:28:13;11.35;;;9.40;;
635;SDS011;302;50.206;8.196;2023-12-04T05:30:39;11.10;;;9.93;;
635;SDS011;302;50.206;8.196;2023-12-04T05:33:04;11.50;;;9.90;;
635;SDS011;302;50.206;8.196;2023-12-04T05:35:29;10.45;;;9.10;;
635;SDS011;302;50.206;8.196;2023-12-04T05:37:54;10.80;;;9.35;;
635;SDS011;302;50.206;8.196;2023-12-04T05:40:19;9.32;;;7.72;;
635;SDS011;302;50.206;8.196;2023-12-04T05:42:44;10.70;;;8.77;;
635;SDS011;302;50.206;8.196;2023-12-04T05:45:09;9.40;;;8.37;;
635;SDS011;302;50.206;8.196;2023-12-04T05:47:35;9.03;;;8.13;;
635;SDS011;302;50.206;8.196;2023-12-04T05:50:00;8.85;;;7.80;;
635;SDS011;302;50.206;8.196;2023-12-04T05:52:25;9.47;;;8.00;;
635;SDS011;302;50.206;8.196;2023-12-04T05:54:50;8.32;;;7.45;;
635;SDS011;302;50.206;8.196;2023-12-04T05:57:16;7.90;;;7.10;;
635;SDS011;302;50.206;8.196;2023-12-04T05:59:41;9.43;;;7.87;;
635;SDS011;302;50.206;8.196;2023-12-04T06:02:06;7.90;;;7.10;;
635;SDS011;302;50.206;8.196;2023-12-04T06:04:32;9.90;;;7.80;;
635;SDS011;302;50.206;8.196;2023-12-04T06:06:57;10.70;;;9.30;;
635;SDS011;302;50.206;8.196;2023-12-04T06:09:22;8.23;;;7.33;;
635;SDS011;302;50.206;8.196;2023-12-04T06:11:47;9.13;;;7.23;;
635;SDS011;302;50.206;8.196;2023-12-04T06:14:12;8.10;;;7.30;;
635;SDS011;302;50.206;8.196;2023-12-04T06:16:38;9.57;;;8.13;;
635;SDS011;302;50.206;8.196;2023-12-04T06:19:03;9.25;;;7.75;;
635;SDS011;302;50.206;8.196;2023-12-04T06:21:31;9.95;;;8.32;;
635;SDS011;302;50.206;8.196;2023-12-04T06:23:56;8.53;;;7.13;;
635;SDS011;302;50.206;8.196;2023-12-04T06:26:22;9.27;;;7.53;;
635;SDS011;302;50.206;8.196;2023-12-04T06:28:47;8.57;;;7.40;;
635;SDS011;302;50.206;8.196;2023-12-04T06:31:13;8.73;;;7.43;;
635;SDS011;302;50.206;8.196;2023-12-04T06:33:38;8.27;;;7.27;;
635;SDS011;302;50.206;8.196;2023-12-04T06:36:04;8.63;;;7.40;;
635;SDS011;302;50.206;8.196;2023-12-04T06:38:30;8.13;;;7.20;;
635;SDS011;302;50.206;8.196;2023-12-04T06:40:56;7.70;;;6.90;;
635;SDS011;302;50.206;8.196;2023-12-04T06:43:22;7.40;;;6.70;;
635;SDS011;302;50.206;8.196;2023-12-04T06:45:47;8.93;;;6.40;;
635;SDS011;302;50.206;8.196;2023-12-04T06:48:13;7.40;;;6.00;;
635;SDS011;302;50.206;8.196;2023-12-04T06:50:38;7.37;;;5.93;;
635;SDS011;302;50.206;8.196;2023-12-04T06:53:03;6.10;;;5.50;;
635;SDS011;302;50.206;8.196;2023-12-04T06:55:29;6.20;;;5.40;;
635;SDS011;302;50.206;8.196;2023-12-04T06:57:54;7.40;;;6.13;;
635;SDS011;302;50.206;8.196;2023-12-04T07:00:19;6.82;;;6.10;;
635;SDS011;302;50.206;8.196;2023-12-04T07:02:44;7.10;;;5.93;;
635;SDS011;302;50.206;8.196;2023-12-04T07:05:09;6.97;;;6.28;;
635;SDS011;302;50.206;8.196;2023-12-04T07:07:35;6.83;;;5.77;;
635;SDS011;302;50.206;8.196;2023-12-04T07:10:00;6.60;;;5.77;;
635;SDS011;302;50.206;8.196;2023-12-04T07:12:25;8.30;;;6.53;;
635;SDS011;302;50.206;8.196;2023-12-04T07:14:50;7.70;;;7.00;;
635;SDS011;302;50.206;8.196;2023-12-04T07:17:15;7.90;;;6.70;;
635;SDS011;302;50.206;8.196;2023-12-04T07:19:41;9.17;;;7.40;;
635;SDS011;302;50.206;8.196;2023-12-04T07:22:06;9.73;;;7.77;;
635;SDS011;302;50.206;8.196;2023-12-04T07:24:32;7.80;;;6.90;;
635;SDS011;302;50.206;8.196;2023-12-04T07:26:58;8.35;;;7.28;;
635;SDS011;302;50.206;8.196;2023-12-04T07:29:23;8.67;;;7.20;;
635;SDS011;302;50.206;8.196;2023-12-04T07:31:48;9.87;;;7.57;;
635;SDS011;302;50.206;8.196;2023-12-04T07:34:13;8.43;;;7.45;;
635;SDS011;302;50.206;8.196;2023-12-04T07:36:38;8.95;;;7.60;;
635;SDS011;302;50.206;8.196;2023-12-04T07:39:03;8.88;;;7.25;;
635;SDS011;302;50.206;8.196;2023-12-04T07:41:31;8.07;;;7.15;;
635;SDS011;302;50.206;8.196;2023-12-04T07:43:56;8.60;;;7.53;;
635;SDS011;302;50.206;8.196;2023-12-04T07:46:21;11.10;;;9.13;;
635;SDS011;302;50.206;8.196;2023-12-04T07:48:47;11.30;;;9.50;;
635;SDS011;302;50.206;8.196;2023-12-04T07:51:12;9.85;;;8.40;;
635;SDS011;302;50.206;8.196;2023-12-04T07:53:37;10.03;;;8.47;;
635;SDS011;302;50.206;8.196;2023-12-04T07:56:02;10.13;;;9.10;;
635;SDS011;302;50.206;8.196;2023-12-04T07:58:30;9.70;;;8.70;;
635;SDS011;302;50.206;8.196;2023-12-04T08:00:56;10.70;;;8.90;;
635;SDS011;302;50.206;8.196;2023-12-04T08:03:21;9.47;;;7.97;;
635;SDS011;302;50.206;8.196;2023-12-04T08:05:47;10.00;;;8.20;;
635;SDS011;302;50.206;8.196;2023-12-04T08:08:12;9.23;;;8.23;;
635;SDS011;302;50.206;8.196;2023-12-04T08:10:37;10.00;;;8.60;;
635;SDS011;302;50.206;8.196;2023-12-04T08:13:02;9.07;;;7.80;;
635;SDS011;302;50.206;8.196;2023-12-04T08:15:27;10.27;;;8.50;;
635;SDS011;302;50.206;8.196;2023-12-04T08:17:52;10.13;;;8.70;;
635;SDS011;302;50.206;8.196;2023-12-04T08:20:18;8.67;;;7.77;;
635;SDS011;302;50.206;8.196;2023-12-04T08:22:47;9.90;;;8.48;;
635;SDS011;302;50.206;8.196;2023-12-04T08:25:12;9.40;;;7.67;;
635;SDS011;302;50.206;8.196;2023-12-04T08:27:37;10.17;;;7.80;;
635;SDS011;302;50.206;8.196;2023-12-04T08:30:05;11.60;;;9.15;;
635;SDS011;302;50.206;8.196;2023-12-04T08:32:30;9.50;;;8.50;;
635;SDS011;302;50.206;8.196;2023-12-04T08:34:55;9.07;;;8.07;;
635;SDS011;302;50.206;8.196;2023-12-04T08:37:21;8.10;;;7.00;;
635;SDS011;302;50.206;8.196;2023-12-04T08:39:46;8.67;;;7.77;;
635;SDS011;302;50.206;8.196;2023-12-04T08:42:11;9.43;;;7.30;;
635;SDS011;302;50.206;8.196;2023-12-04T08:44:36;7.77;;;7.07;;
635;SDS011;302;50.206;8.196;2023-12-04T08:47:02;7.13;;;6.47;;
635;SDS011;302;50.206;8.196;2023-12-04T08:49:27;8.60;;;7.70;;
635;SDS011;302;50.206;8.196;2023-12-04T08:51:52;7.85;;;7.15;;
635;SDS011;302;50.206;8.196;2023-12-04T08:54:17;8.47;;;6.80;;
635;SDS011;302;50.206;8.196;2023-12-04T08:56:43;7.30;;;6.60;;
635;SDS011;302;50.206;8.196;2023-12-04T08:59:09;6.50;;;5.90;;
635;SDS011;302;50.206;8.196;2023-12-04T09:01:34;7.50;;;6.45;;
635;SDS011;302;50.206;8.196;2023-12-04T09:03:59;7.50;;;6.70;;
635;SDS011;302;50.206;8.196;2023-12-04T09:06:24;7.43;;;5.93;;
635;SDS011;302;50.206;8.196;2023-12-04T09:08:49;7.23;;;6.23;;
635;SDS011;302;50.206;8.196;2023-12-04T09:11:15;7.47;;;6.68;;
635;SDS011;302;50.206;8.196;2023-12-04T09:13:40;6.68;;;5.95;;
635;SDS011;302;50.206;8.196;2023-12-04T09:16:05;6.93;;;6.22;;
635;SDS011;302;50.206;8.196;2023-12-04T09:18:30;6.37;;;5.77;;
635;SDS011;302;50.206;8.196;2023-12-04T09:20:55;6.87;;;6.17;;
635;SDS011;302;50.206;8.196;2023-12-04T09:23:21;6.28;;;5.68;;
635;SDS011;302;50.206;8.196;2023-12-04T09:25:46;6.10;;;5.50;;
635;SDS011;302;50.206;8.196;2023-12-04T09:28:11;6.55;;;5.85;;
635;SDS011;302;50.206;8.196;2023-12-04T09:30:36;6.07;;;5.47;;
635;SDS011;302;50.206;8.196;2023-12-04T09:33:02;5.93;;;5.43;;
635;SDS011;302;50.206;8.196;2023-12-04T09:35:27;6.23;;;5.63;;
635;SDS011;302;50.206;8.196;2023-12-04T09:37:52;6.00;;;5.50;;
635;SDS011;302;50.206;8.196;2023-12-04T09:40:19;6.78;;;5.68;;
635;SDS011;302;50.206;8.196;2023-12-04T09:42:44;5.77;;;5.20;;
635;SDS011;302;50.206;8.196;2023-12-04T09:45:09;9.00;;;6.30;;
635;SDS011;302;50.206;8.196;2023-12-04T09:47:35;6.38;;;5.78;;
635;SDS011;302;50.206;8.196;2023-12-04T09:50:01;7.00;;;6.30;;
635;SDS011;302;50.206;8.196;2023-12-04T09:52:27;6.87;;;6.17;;
635;SDS011;302;50.206;8.196;2023-12-04T09:54:52;7.13;;;6.40;;
635;SDS011;302;50.206;8.196;2023-12-04T09:57:17;7.07;;;6.37;;
635;SDS011;302;50.206;8.196;2023-12-04T09:59:43;8.30;;;7.50;;
635;SDS011;302;50.206;8.196;2023-12-04T10:02:09;7.63;;;6.60;;
635;SDS011;302;50.206;8.196;2023-12-04T10:04:34;7.27;;;6.50;;
635;SDS011;302;50.206;8.196;2023-12-04T10:06:59;9.57;;;8.07;;
635;SDS011;302;50.206;8.196;2023-12-04T10:09:25;8.80;;;7.30;;
635;SDS011;302;50.206;8.196;2023-12-04T10:11:50;7.80;;;6.88;;
635;SDS011;302;50.206;8.196;2023-12-04T10:14:17;8.18;;;6.97;;
635;SDS011;302;50.206;8.196;2023-12-04T10:16:42;7.93;;;6.95;;
635;SDS011;302;50.206;8.196;2023-12-04T10:21:39;9.13;;;7.82;;
635;SDS011;302;50.206;8.196;2023-12-04T10:24:04;8.55;;;7.57;;
635;SDS011;302;50.206;8.196;2023-12-04T10:26:29;7.53;;;6.83;;
635;SDS011;302;50.206;8.196;2023-12-04T10:28:58;7.32;;;6.53;;
635;SDS011;302;50.206;8.196;2023-12-04T10:31:24;7.38;;;6.68;;
635;SDS011;302;50.206;8.196;2023-12-04T10:33:49;10.07;;;7.05;;
635;SDS011;302;50.206;8.196;2023-12-04T10:36:14;8.30;;;7.13;;
635;SDS011;302;50.206;8.196;2023-12-04T10:38:40;9.37;;;8.03;;
635;SDS011;302;50.206;8.196;2023-12-04T10:41:12;7.73;;;7.00;;
635;SDS011;302;50.206;8.196;2023-12-04T10:43:37;8.55;;;7.65;;
635;SDS011;302;50.206;8.196;2023-12-04T10:46:11;9.07;;;7.82;;
635;SDS011;302;50.206;8.196;2023-12-04T10:48:37;9.20;;;8.02;;
635;SDS011;302;50.206;8.196;2023-12-04T10:51:02;9.27;;;8.10;;
635;SDS011;302;50.206;8.196;2023-12-04T10:53:30;28.80;;;23.85;;
635;SDS011;302;50.206;8.196;2023-12-04T10:55:55;19.50;;;17.50;;
635;SDS011;302;50.206;8.196;2023-12-04T10:58:21;10.80;;;9.80;;
635;SDS011;302;50.206;8.196;2023-12-04T11:00:50;12.90;;;11.80;;
635;SDS011;302;50.206;8.196;2023-12-04T11:03:18;18.67;;;16.97;;
635;SDS011;302;50.206;8.196;2023-12-04T11:05:44;14.00;;;12.60;;
635;SDS011;302;50.206;8.196;2023-12-04T11:08:11;13.33;;;12.10;;
635;SDS011;302;50.206;8.196;2023-12-04T11:10:46;12.20;;;10.15;;
635;SDS011;302;50.206;8.196;2023-12-04T11:13:27;10.85;;;9.75;;
635;SDS011;302;50.206;8.196;2023-12-04T11:15:53;10.10;;;9.02;;
635;SDS011;302;50.206;8.196;2023-12-04T11:18:22;12.68;;;11.38;;
635;SDS011;302;50.206;8.196;2023-12-04T11:20:51;13.18;;;11.88;;
635;SDS011;302;50.206;8.196;2023-12-04T11:23:17;10.85;;;9.50;;
635;SDS011;302;50.206;8.196;2023-12-04T11:25:43;10.80;;;9.70;;
635;SDS011;302;50.206;8.196;2023-12-04T11:28:09;9.75;;;8.70;;
635;SDS011;302;50.206;8.196;2023-12-04T11:30:34;8.70;;;7.80;;
635;SDS011;302;50.206;8.196;2023-12-04T11:33:00;10.13;;;9.10;;
635;SDS011;302;50.206;8.196;2023-12-04T11:35:25;12.30;;;10.13;;
635;SDS011;302;50.206;8.196;2023-12-04T11:37:51;11.20;;;10.10;;
635;SDS011;302;50.206;8.196;2023-12-04T11:40:17;10.15;;;8.45;;
635;SDS011;302;50.206;8.196;2023-12-04T11:42:42;9.47;;;8.57;;
635;SDS011;302;50.206;8.196;2023-12-04T11:45:07;11.37;;;9.57;;
635;SDS011;302;50.206;8.196;2023-12-04T11:47:49;10.47;;;9.10;;
635;SDS011;302;50.206;8.196;2023-12-04T11:50:15;12.00;;;10.90;;
635;SDS011;302;50.206;8.196;2023-12-04T11:52:40;9.50;;;8.55;;
635;SDS011;302;50.206;8.196;2023-12-04T11:55:06;9.02;;;8.13;;
635;SDS011;302;50.206;8.196;2023-12-04T11:57:32;9.07;;;8.17;;
635;SDS011;302;50.206;8.196;2023-12-04T12:02:46;10.60;;;7.93;;
635;SDS011;302;50.206;8.196;2023-12-04T12:05:11;10.57;;;8.60;;
635;SDS011;302;50.206;8.196;2023-12-04T12:07:37;8.53;;;7.73;;
635;SDS011;302;50.206;8.196;2023-12-04T12:10:02;10.33;;;7.97;;
635;SDS011;302;50.206;8.196;2023-12-04T12:12:27;8.90;;;8.00;;
635;SDS011;302;50.206;8.196;2023-12-04T12:14:52;9.20;;;7.43;;
635;SDS011;302;50.206;8.196;2023-12-04T12:17:18;9.05;;;8.10;;
635;SDS011;302;50.206;8.196;2023-12-04T12:19:43;8.03;;;7.27;;
635;SDS011;302;50.206;8.196;2023-12-04T12:22:08;8.73;;;7.60;;
635;SDS011;302;50.206;8.196;2023-12-04T12:24:34;10.00;;;8.87;;
635;SDS011;302;50.206;8.196;2023-12-04T12:26:59;12.10;;;9.20;;
635;SDS011;302;50.206;8.196;2023-12-04T12:29:24;9.80;;;8.03;;
635;SDS011;302;50.206;8.196;2023-12-04T12:31:50;10.45;;;9.35;;
635;SDS011;302;50.206;8.196;2023-12-04T12:34:15;11.23;;;8.87;;
635;SDS011;302;50.206;8.196;2023-12-04T12:36:40;9.93;;;8.77;;
635;SDS011;302;50.206;8.196;2023-12-04T12:39:05;10.77;;;9.30;;
635;SDS011;302;50.206;8.196;2023-12-04T12:41:33;10.70;;;9.50;;
635;SDS011;302;50.206;8.196;2023-12-04T12:43:58;10.33;;;8.60;;
635;SDS011;302;50.206;8.196;2023-12-04T12:46:25;10.23;;;8.38;;
635;SDS011;302;50.206;8.196;2023-12-04T12:48:51;8.63;;;7.73;;
635;SDS011;302;50.206;8.196;2023-12-04T12:51:16;9.00;;;7.60;;
635;SDS011;302;50.206;8.196;2023-12-04T12:53:43;8.60;;;7.70;;
635;SDS011;302;50.206;8.196;2023-12-04T12:56:08;12.00;;;11.00;;
635;SDS011;302;50.206;8.196;2023-12-04T12:58:34;9.53;;;8.40;;
635;SDS011;302;50.206;8.196;2023-12-04T13:00:59;9.63;;;8.40;;
635;SDS011;302;50.206;8.196;2023-12-04T13:03:25;9.33;;;8.33;;
635;SDS011;302;50.206;8.196;2023-12-04T13:05:50;11.53;;;9.93;;
635;SDS011;302;50.206;8.196;2023-12-04T13:08:15;11.07;;;9.05;;
635;SDS011;302;50.206;8.196;2023-12-04T13:10:40;10.83;;;8.40;;
635;SDS011;302;50.206;8.196;2023-12-04T13:13:09;8.93;;;8.03;;
635;SDS011;302;50.206;8.196;2023-12-04T13:15:34;10.15;;;8.90;;
635;SDS011;302;50.206;8.196;2023-12-04T13:18:00;9.27;;;8.27;;
635;SDS011;302;50.206;8.196;2023-12-04T13:20:25;10.60;;;9.40;;
635;SDS011;302;50.206;8.196;2023-12-04T13:22:50;11.83;;;9.70;;
635;SDS011;302;50.206;8.196;2023-12-04T13:25:15;14.13;;;10.93;;
635;SDS011;302;50.206;8.196;2023-12-04T13:27:41;12.47;;;11.00;;
635;SDS011;302;50.206;8.196;2023-12-04T13:30:06;10.80;;;9.60;;
635;SDS011;302;50.206;8.196;2023-12-04T13:32:33;11.57;;;10.35;;
635;SDS011;302;50.206;8.196;2023-12-04T13:34:58;12.20;;;10.90;;
635;SDS011;302;50.206;8.196;2023-12-04T13:37:24;10.83;;;9.43;;
635;SDS011;302;50.206;8.196;2023-12-04T13:39:51;13.38;;;11.50;;
635;SDS011;302;50.206;8.196;2023-12-04T13:42:22;13.48;;;10.35;;
635;SDS011;302;50.206;8.196;2023-12-04T13:45:06;12.60;;;10.55;;
635;SDS011;302;50.206;8.196;2023-12-04T13:47:34;10.43;;;8.95;;
635;SDS011;302;50.206;8.196;2023-12-04T13:49:59;12.50;;;10.50;;
635;SDS011;302;50.206;8.196;2023-12-04T13:52:24;10.38;;;9.15;;
635;SDS011;302;50.206;8.196;2023-12-04T13:54:49;9.73;;;8.77;;
635;SDS011;302;50.206;8.196;2023-12-04T13:57:16;10.73;;;9.10;;
635;SDS011;302;50.206;8.196;2023-12-04T13:59:53;9.57;;;8.32;;
635;SDS011;302;50.206;8.196;2023-12-04T14:02:20;10.35;;;8.60;;
635;SDS011;302;50.206;8.196;2023-12-04T14:04:46;8.85;;;8.00;;
635;SDS011;302;50.206;8.196;2023-12-04T14:07:11;8.17;;;7.37;;
635;SDS011;302;50.206;8.196;2023-12-04T14:09:37;8.98;;;7.25;;
635;SDS011;302;50.206;8.196;2023-12-04T14:12:02;8.60;;;7.80;;
635;SDS011;302;50.206;8.196;2023-12-04T14:14:28;9.48;;;8.52;;
635;SDS011;302;50.206;8.196;2023-12-04T14:16:53;8.97;;;8.07;;
635;SDS011;302;50.206;8.196;2023-12-04T14:19:18;7.88;;;7.18;;
635;SDS011;302;50.206;8.196;2023-12-04T14:21:46;7.65;;;6.95;;
635;SDS011;302;50.206;8.196;2023-12-04T14:24:13;7.47;;;6.78;;
635;SDS011;302;50.206;8.196;2023-12-04T14:26:38;7.03;;;6.40;;
635;SDS011;302;50.206;8.196;2023-12-04T14:29:03;7.30;;;6.18;;
635;SDS011;302;50.206;8.196;2023-12-04T14:31:28;7.43;;;6.60;;
635;SDS011;302;50.206;8.196;2023-12-04T14:33:54;7.43;;;6.73;;
635;SDS011;302;50.206;8.196;2023-12-04T14:36:19;7.80;;;7.00;;
635;SDS011;302;50.206;8.196;2023-12-04T14:38:46;7.65;;;6.95;;
635;SDS011;302;50.206;8.196;2023-12-04T14:41:11;8.10;;;7.30;;
635;SDS011;302;50.206;8.196;2023-12-04T14:43:36;8.10;;;7.30;;
635;SDS011;302;50.206;8.196;2023-12-04T14:46:03;7.30;;;6.53;;
635;SDS011;302;50.206;8.196;2023-12-04T14:48:28;6.83;;;6.00;;
635;SDS011;302;50.206;8.196;2023-12-04T14:50:53;6.97;;;6.37;;
635;SDS011;302;50.206;8.196;2023-12-04T14:53:18;6.43;;;5.50;;
635;SDS011;302;50.206;8.196;2023-12-04T14:55:54;6.70;;;6.00;;
635;SDS011;302;50.206;8.196;2023-12-04T14:58:38;6.55;;;5.78;;
635;SDS011;302;50.206;8.196;2023-12-04T15:01:26;5.95;;;5.35;;
635;SDS011;302;50.206;8.196;2023-12-04T15:04:10;6.65;;;6.05;;
635;SDS011;302;50.206;8.196;2023-12-04T15:06:58;7.00;;;6.30;;
635;SDS011;302;50.206;8.196;2023-12-04T15:09:58;19.90;;;17.77;;
635;SDS011;302;50.206;8.196;2023-12-04T15:12:42;7.43;;;6.72;;
635;SDS011;302;50.206;8.196;2023-12-04T15:15:23;8.23;;;7.40;;
635;SDS011;302;50.206;8.196;2023-12-04T15:18:04;8.27;;;6.93;;
635;SDS011;302;50.206;8.196;2023-12-04T15:20:48;7.68;;;6.95;;
635;SDS011;302;50.206;8.196;2023-12-04T15:23:14;8.35;;;7.55;;
635;SDS011;302;50.206;8.196;2023-12-04T15:25:40;9.10;;;8.30;;
635;SDS011;302;50.206;8.196;2023-12-04T15:28:05;8.10;;;7.37;;